sensor_id;sensor_type;location;lat;lon;timestamp;P1;durP1;ratioP1;P2;durP2;ratioP2
9485;SDS011;4781;48.776;9.200;2023-12-20T00:01:17;1.35;;;0.82;;
9485;SDS011;4781;48.776;9.200;2023-12-20T00:03:46;1.60;;;0.80;;
9485;SDS011;4781;48.776;9.200;2023-12-20T00:06:14;1.45;;;0.98;;
9485;SDS011;4781;48.776;9.200;2023-12-20T00:08:43;1.12;;;0.70;;
9485;SDS011;4781;48.776;9.200;2023-12-20T00:11:11;0.98;;;0.80;;
9485;SDS011;4781;48.776;9.200;2023-12-20T00:13:39;0.70;;;0.60;;
9485;SDS011;4781;48.776;9.200;2023-12-20T00:16:08;0.90;;;0.70;;
9485;SDS011;4781;48.776;9.200;2023-12-20T00:18:36;1.17;;;0.68;;
9485;SDS011;4781;48.776;9.200;2023-12-20T00:21:05;1.22;;;0.72;;
9485;SDS011;4781;48.776;9.200;2023-12-20T00:23:33;1.35;;;0.80;;
9485;SDS011;4781;48.776;9.200;2023-12-20T00:26:01;0.75;;;0.60;;
9485;SDS011;4781;48.776;9.200;2023-12-20T00:28:30;1.32;;;0.82;;
9485;SDS011;4781;48.776;9.200;2023-12-20T00:30:58;1.35;;;0.90;;
9485;SDS011;4781;48.776;9.200;2023-12-20T00:33:27;0.90;;;0.70;;
9485;SDS011;4781;48.776;9.200;2023-12-20T00:35:56;1.95;;;0.98;;
9485;SDS011;4781;48.776;9.200;2023-12-20T00:38:24;1.60;;;0.72;;
9485;SDS011;4781;48.776;9.200;2023-12-20T00:40:53;0.75;;;0.65;;
9485;SDS011;4781;48.776;9.200;2023-12-20T00:43:21;0.98;;;0.70;;
9485;SDS011;4781;48.776;9.200;2023-12-20T00:45:50;0.88;;;0.75;;
9485;SDS011;4781;48.776;9.200;2023-12-20T00:48:18;1.25;;;0.80;;
9485;SDS011;4781;48.776;9.200;2023-12-20T00:50:47;1.45;;;0.80;;
9485;SDS011;4781;48.776;9.200;2023-12-20T00:53:15;1.50;;;0.80;;
9485;SDS011;4781;48.776;9.200;2023-12-20T00:55:43;0.72;;;0.50;;
9485;SDS011;4781;48.776;9.200;2023-12-20T00:58:12;2.12;;;0.80;;
9485;SDS011;4781;48.776;9.200;2023-12-20T01:00:41;0.68;;;0.60;;
9485;SDS011;4781;48.776;9.200;2023-12-20T01:03:09;1.35;;;0.90;;
9485;SDS011;4781;48.776;9.200;2023-12-20T01:05:38;0.57;;;0.50;;
9485;SDS011;4781;48.776;9.200;2023-12-20T01:08:06;0.70;;;0.60;;
9485;SDS011;4781;48.776;9.200;2023-12-20T01:10:35;0.78;;;0.70;;
9485;SDS011;4781;48.776;9.200;2023-12-20T01:13:03;0.70;;;0.60;;
9485;SDS011;4781;48.776;9.200;2023-12-20T01:15:31;0.62;;;0.60;;
9485;SDS011;4781;48.776;9.200;2023-12-20T01:18:00;0.95;;;0.68;;
9485;SDS011;4781;48.776;9.200;2023-12-20T01:20:28;1.00;;;0.70;;
9485;SDS011;4781;48.776;9.200;2023-12-20T01:22:57;0.65;;;0.60;;
9485;SDS011;4781;48.776;9.200;2023-12-20T01:25:25;0.82;;;0.70;;
9485;SDS011;4781;48.776;9.200;2023-12-20T01:27:53;0.82;;;0.65;;
9485;SDS011;4781;48.776;9.200;2023-12-20T01:30:22;1.00;;;0.90;;
9485;SDS011;4781;48.776;9.200;2023-12-20T01:32:50;0.78;;;0.60;;
9485;SDS011;4781;48.776;9.200;2023-12-20T01:35:18;1.75;;;0.90;;
9485;SDS011;4781;48.776;9.200;2023-12-20T01:37:47;0.75;;;0.68;;
9485;SDS011;4781;48.776;9.200;2023-12-20T01:40:15;1.10;;;0.70;;
9485;SDS011;4781;48.776;9.200;2023-12-20T01:42:44;1.10;;;0.80;;
9485;SDS011;4781;48.776;9.200;2023-12-20T01:45:12;0.65;;;0.50;;
9485;SDS011;4781;48.776;9.200;2023-12-20T01:47:40;1.30;;;0.82;;
9485;SDS011;4781;48.776;9.200;2023-12-20T01:50:09;0.98;;;0.68;;
9485;SDS011;4781;48.776;9.200;2023-12-20T01:52:37;1.80;;;0.90;;
9485;SDS011;4781;48.776;9.200;2023-12-20T01:55:06;1.00;;;0.75;;
9485;SDS011;4781;48.776;9.200;2023-12-20T01:57:36;0.88;;;0.62;;
9485;SDS011;4781;48.776;9.200;2023-12-20T02:00:05;0.68;;;0.65;;
9485;SDS011;4781;48.776;9.200;2023-12-20T02:02:36;1.87;;;0.72;;
9485;SDS011;4781;48.776;9.200;2023-12-20T02:05:07;1.20;;;0.88;;
9485;SDS011;4781;48.776;9.200;2023-12-20T02:07:36;1.32;;;0.80;;
9485;SDS011;4781;48.776;9.200;2023-12-20T02:10:05;1.25;;;0.82;;
9485;SDS011;4781;48.776;9.200;2023-12-20T02:12:33;1.52;;;0.80;;
9485;SDS011;4781;48.776;9.200;2023-12-20T02:15:02;0.88;;;0.60;;
9485;SDS011;4781;48.776;9.200;2023-12-20T02:17:31;1.12;;;0.70;;
9485;SDS011;4781;48.776;9.200;2023-12-20T02:20:00;1.32;;;0.80;;
9485;SDS011;4781;48.776;9.200;2023-12-20T02:22:28;1.85;;;0.90;;
9485;SDS011;4781;48.776;9.200;2023-12-20T02:24:57;1.07;;;0.80;;
9485;SDS011;4781;48.776;9.200;2023-12-20T02:27:25;1.02;;;0.80;;
9485;SDS011;4781;48.776;9.200;2023-12-20T02:29:54;0.55;;;0.55;;
9485;SDS011;4781;48.776;9.200;2023-12-20T02:32:23;0.95;;;0.60;;
9485;SDS011;4781;48.776;9.200;2023-12-20T02:34:52;1.15;;;0.80;;
9485;SDS011;4781;48.776;9.200;2023-12-20T02:37:22;1.00;;;0.60;;
9485;SDS011;4781;48.776;9.200;2023-12-20T02:39:50;1.45;;;0.90;;
9485;SDS011;4781;48.776;9.200;2023-12-20T02:42:19;1.60;;;0.70;;
9485;SDS011;4781;48.776;9.200;2023-12-20T02:44:47;1.00;;;0.75;;
9485;SDS011;4781;48.776;9.200;2023-12-20T02:47:15;0.82;;;0.70;;
9485;SDS011;4781;48.776;9.200;2023-12-20T02:49:44;1.22;;;0.80;;
9485;SDS011;4781;48.776;9.200;2023-12-20T02:52:12;1.98;;;0.78;;
9485;SDS011;4781;48.776;9.200;2023-12-20T02:54:41;0.90;;;0.78;;
9485;SDS011;4781;48.776;9.200;2023-12-20T02:57:09;1.47;;;0.82;;
9485;SDS011;4781;48.776;9.200;2023-12-20T02:59:37;0.95;;;0.75;;
9485;SDS011;4781;48.776;9.200;2023-12-20T03:02:06;1.37;;;0.90;;
9485;SDS011;4781;48.776;9.200;2023-12-20T03:04:34;4.37;;;0.90;;
9485;SDS011;4781;48.776;9.200;2023-12-20T03:07:02;1.15;;;0.82;;
9485;SDS011;4781;48.776;9.200;2023-12-20T03:09:31;0.50;;;0.50;;
9485;SDS011;4781;48.776;9.200;2023-12-20T03:11:59;0.65;;;0.60;;
9485;SDS011;4781;48.776;9.200;2023-12-20T03:14:27;0.95;;;0.70;;
9485;SDS011;4781;48.776;9.200;2023-12-20T03:16:56;1.57;;;0.80;;
9485;SDS011;4781;48.776;9.200;2023-12-20T03:19:24;0.70;;;0.60;;
9485;SDS011;4781;48.776;9.200;2023-12-20T03:21:53;1.17;;;0.75;;
9485;SDS011;4781;48.776;9.200;2023-12-20T03:24:21;0.93;;;0.70;;
9485;SDS011;4781;48.776;9.200;2023-12-20T03:26:49;1.00;;;0.75;;
9485;SDS011;4781;48.776;9.200;2023-12-20T03:29:18;0.95;;;0.75;;
9485;SDS011;4781;48.776;9.200;2023-12-20T03:31:46;1.22;;;0.60;;
9485;SDS011;4781;48.776;9.200;2023-12-20T03:34:14;0.80;;;0.70;;
9485;SDS011;4781;48.776;9.200;2023-12-20T03:36:43;0.88;;;0.70;;
9485;SDS011;4781;48.776;9.200;2023-12-20T03:39:13;0.70;;;0.60;;
9485;SDS011;4781;48.776;9.200;2023-12-20T03:41:42;1.22;;;0.65;;
9485;SDS011;4781;48.776;9.200;2023-12-20T03:44:10;1.95;;;0.68;;
9485;SDS011;4781;48.776;9.200;2023-12-20T03:46:38;0.70;;;0.60;;
9485;SDS011;4781;48.776;9.200;2023-12-20T03:49:07;2.35;;;0.50;;
9485;SDS011;4781;48.776;9.200;2023-12-20T03:51:35;0.88;;;0.60;;
9485;SDS011;4781;48.776;9.200;2023-12-20T03:54:04;1.27;;;0.65;;
9485;SDS011;4781;48.776;9.200;2023-12-20T03:56:32;0.65;;;0.57;;
9485;SDS011;4781;48.776;9.200;2023-12-20T03:59:00;0.50;;;0.50;;
9485;SDS011;4781;48.776;9.200;2023-12-20T04:01:29;0.88;;;0.70;;
9485;SDS011;4781;48.776;9.200;2023-12-20T04:03:57;1.70;;;0.60;;
9485;SDS011;4781;48.776;9.200;2023-12-20T04:06:26;0.50;;;0.50;;
9485;SDS011;4781;48.776;9.200;2023-12-20T04:08:54;1.22;;;0.60;;
9485;SDS011;4781;48.776;9.200;2023-12-20T04:11:23;0.50;;;0.50;;
9485;SDS011;4781;48.776;9.200;2023-12-20T04:13:51;0.62;;;0.50;;
9485;SDS011;4781;48.776;9.200;2023-12-20T04:16:20;0.40;;;0.40;;
9485;SDS011;4781;48.776;9.200;2023-12-20T04:18:48;0.65;;;0.55;;
9485;SDS011;4781;48.776;9.200;2023-12-20T04:21:17;0.45;;;0.42;;
9485;SDS011;4781;48.776;9.200;2023-12-20T04:23:45;0.50;;;0.50;;
9485;SDS011;4781;48.776;9.200;2023-12-20T04:26:13;0.68;;;0.60;;
9485;SDS011;4781;48.776;9.200;2023-12-20T04:28:42;1.47;;;0.50;;
9485;SDS011;4781;48.776;9.200;2023-12-20T04:31:10;0.40;;;0.40;;
9485;SDS011;4781;48.776;9.200;2023-12-20T04:33:39;0.40;;;0.40;;
9485;SDS011;4781;48.776;9.200;2023-12-20T04:36:07;0.50;;;0.50;;
9485;SDS011;4781;48.776;9.200;2023-12-20T04:38:36;0.50;;;0.50;;
9485;SDS011;4781;48.776;9.200;2023-12-20T04:41:04;0.50;;;0.50;;
9485;SDS011;4781;48.776;9.200;2023-12-20T04:43:33;0.50;;;0.45;;
9485;SDS011;4781;48.776;9.200;2023-12-20T04:46:01;0.40;;;0.40;;
9485;SDS011;4781;48.776;9.200;2023-12-20T04:48:30;0.45;;;0.45;;
9485;SDS011;4781;48.776;9.200;2023-12-20T04:50:58;0.50;;;0.50;;
9485;SDS011;4781;48.776;9.200;2023-12-20T04:53:26;0.50;;;0.50;;
9485;SDS011;4781;48.776;9.200;2023-12-20T04:55:55;0.55;;;0.55;;
9485;SDS011;4781;48.776;9.200;2023-12-20T04:58:23;0.85;;;0.60;;
9485;SDS011;4781;48.776;9.200;2023-12-20T05:00:51;0.60;;;0.50;;
9485;SDS011;4781;48.776;9.200;2023-12-20T05:03:20;0.40;;;0.40;;
9485;SDS011;4781;48.776;9.200;2023-12-20T05:05:48;0.50;;;0.50;;
9485;SDS011;4781;48.776;9.200;2023-12-20T05:08:17;0.50;;;0.50;;
9485;SDS011;4781;48.776;9.200;2023-12-20T05:10:45;0.68;;;0.62;;
9485;SDS011;4781;48.776;9.200;2023-12-20T05:13:14;0.62;;;0.47;;
9485;SDS011;4781;48.776;9.200;2023-12-20T05:15:42;0.50;;;0.50;;
9485;SDS011;4781;48.776;9.200;2023-12-20T05:18:11;1.95;;;0.50;;
9485;SDS011;4781;48.776;9.200;2023-12-20T05:20:39;0.65;;;0.50;;
9485;SDS011;4781;48.776;9.200;2023-12-20T05:23:08;0.50;;;0.50;;
9485;SDS011;4781;48.776;9.200;2023-12-20T05:25:37;0.50;;;0.50;;
9485;SDS011;4781;48.776;9.200;2023-12-20T05:28:06;0.62;;;0.55;;
9485;SDS011;4781;48.776;9.200;2023-12-20T05:30:34;0.40;;;0.40;;
9485;SDS011;4781;48.776;9.200;2023-12-20T05:33:02;0.55;;;0.50;;
9485;SDS011;4781;48.776;9.200;2023-12-20T05:35:31;0.50;;;0.50;;
9485;SDS011;4781;48.776;9.200;2023-12-20T05:37:59;0.40;;;0.40;;
9485;SDS011;4781;48.776;9.200;2023-12-20T05:40:28;0.50;;;0.50;;
9485;SDS011;4781;48.776;9.200;2023-12-20T05:42:56;0.53;;;0.53;;
9485;SDS011;4781;48.776;9.200;2023-12-20T05:45:25;0.70;;;0.50;;
9485;SDS011;4781;48.776;9.200;2023-12-20T05:47:53;1.25;;;0.60;;
9485;SDS011;4781;48.776;9.200;2023-12-20T05:50:21;0.50;;;0.50;;
9485;SDS011;4781;48.776;9.200;2023-12-20T05:52:50;0.47;;;0.47;;
9485;SDS011;4781;48.776;9.200;2023-12-20T05:55:18;0.53;;;0.50;;
9485;SDS011;4781;48.776;9.200;2023-12-20T05:57:46;0.68;;;0.50;;
9485;SDS011;4781;48.776;9.200;2023-12-20T06:00:15;1.63;;;0.70;;
9485;SDS011;4781;48.776;9.200;2023-12-20T06:02:44;0.55;;;0.42;;
9485;SDS011;4781;48.776;9.200;2023-12-20T06:05:12;0.88;;;0.60;;
9485;SDS011;4781;48.776;9.200;2023-12-20T06:07:41;0.50;;;0.50;;
9485;SDS011;4781;48.776;9.200;2023-12-20T06:10:10;2.37;;;0.75;;
9485;SDS011;4781;48.776;9.200;2023-12-20T06:12:39;0.40;;;0.40;;
9485;SDS011;4781;48.776;9.200;2023-12-20T06:15:08;0.60;;;0.50;;
9485;SDS011;4781;48.776;9.200;2023-12-20T06:17:36;0.40;;;0.40;;
9485;SDS011;4781;48.776;9.200;2023-12-20T06:20:05;0.53;;;0.42;;
9485;SDS011;4781;48.776;9.200;2023-12-20T06:22:35;0.90;;;0.60;;
9485;SDS011;4781;48.776;9.200;2023-12-20T06:25:03;0.90;;;0.70;;
9485;SDS011;4781;48.776;9.200;2023-12-20T06:27:32;0.60;;;0.50;;
9485;SDS011;4781;48.776;9.200;2023-12-20T06:30:01;1.05;;;0.50;;
9485;SDS011;4781;48.776;9.200;2023-12-20T06:32:29;1.12;;;0.88;;
9485;SDS011;4781;48.776;9.200;2023-12-20T06:34:58;1.30;;;0.60;;
9485;SDS011;4781;48.776;9.200;2023-12-20T06:37:26;0.60;;;0.60;;
9485;SDS011;4781;48.776;9.200;2023-12-20T06:39:54;0.60;;;0.55;;
9485;SDS011;4781;48.776;9.200;2023-12-20T06:42:23;0.93;;;0.70;;
9485;SDS011;4781;48.776;9.200;2023-12-20T06:44:51;0.70;;;0.60;;
9485;SDS011;4781;48.776;9.200;2023-12-20T06:47:20;0.60;;;0.60;;
9485;SDS011;4781;48.776;9.200;2023-12-20T06:49:48;0.57;;;0.47;;
9485;SDS011;4781;48.776;9.200;2023-12-20T06:52:16;1.07;;;0.70;;
9485;SDS011;4781;48.776;9.200;2023-12-20T06:54:45;1.02;;;0.80;;
9485;SDS011;4781;48.776;9.200;2023-12-20T06:57:13;0.57;;;0.57;;
9485;SDS011;4781;48.776;9.200;2023-12-20T06:59:41;1.17;;;0.70;;
9485;SDS011;4781;48.776;9.200;2023-12-20T07:02:10;2.00;;;0.90;;
9485;SDS011;4781;48.776;9.200;2023-12-20T07:04:39;0.60;;;0.57;;
9485;SDS011;4781;48.776;9.200;2023-12-20T07:07:08;1.00;;;0.70;;
9485;SDS011;4781;48.776;9.200;2023-12-20T07:09:37;0.50;;;0.50;;
9485;SDS011;4781;48.776;9.200;2023-12-20T07:12:07;0.57;;;0.50;;
9485;SDS011;4781;48.776;9.200;2023-12-20T07:14:35;0.55;;;0.50;;
9485;SDS011;4781;48.776;9.200;2023-12-20T07:17:04;0.53;;;0.50;;
9485;SDS011;4781;48.776;9.200;2023-12-20T07:19:34;0.57;;;0.53;;
9485;SDS011;4781;48.776;9.200;2023-12-20T07:22:02;0.78;;;0.60;;
9485;SDS011;4781;48.776;9.200;2023-12-20T07:24:32;1.07;;;0.65;;
9485;SDS011;4781;48.776;9.200;2023-12-20T07:27:01;0.90;;;0.60;;
9485;SDS011;4781;48.776;9.200;2023-12-20T07:29:29;0.90;;;0.70;;
9485;SDS011;4781;48.776;9.200;2023-12-20T07:31:58;1.30;;;0.80;;
9485;SDS011;4781;48.776;9.200;2023-12-20T07:34:26;0.90;;;0.70;;
9485;SDS011;4781;48.776;9.200;2023-12-20T07:36:54;0.98;;;0.60;;
9485;SDS011;4781;48.776;9.200;2023-12-20T07:39:23;1.45;;;0.80;;
9485;SDS011;4781;48.776;9.200;2023-12-20T07:41:51;1.77;;;0.85;;
9485;SDS011;4781;48.776;9.200;2023-12-20T07:44:20;1.65;;;1.22;;
9485;SDS011;4781;48.776;9.200;2023-12-20T07:46:48;1.65;;;0.98;;
9485;SDS011;4781;48.776;9.200;2023-12-20T07:49:16;1.10;;;0.80;;
9485;SDS011;4781;48.776;9.200;2023-12-20T07:51:46;2.98;;;1.37;;
9485;SDS011;4781;48.776;9.200;2023-12-20T07:54:14;1.85;;;1.02;;
9485;SDS011;4781;48.776;9.200;2023-12-20T07:56:43;1.67;;;1.02;;
9485;SDS011;4781;48.776;9.200;2023-12-20T07:59:12;2.27;;;1.30;;
9485;SDS011;4781;48.776;9.200;2023-12-20T08:01:41;1.98;;;1.40;;
9485;SDS011;4781;48.776;9.200;2023-12-20T08:04:09;2.60;;;1.30;;
9485;SDS011;4781;48.776;9.200;2023-12-20T08:06:38;3.22;;;1.17;;
9485;SDS011;4781;48.776;9.200;2023-12-20T08:09:06;1.92;;;1.20;;
9485;SDS011;4781;48.776;9.200;2023-12-20T08:11:34;1.47;;;0.95;;
9485;SDS011;4781;48.776;9.200;2023-12-20T08:14:03;2.25;;;1.35;;
9485;SDS011;4781;48.776;9.200;2023-12-20T08:16:31;1.70;;;0.90;;
9485;SDS011;4781;48.776;9.200;2023-12-20T08:18:59;1.95;;;1.02;;
9485;SDS011;4781;48.776;9.200;2023-12-20T08:21:28;2.30;;;1.40;;
9485;SDS011;4781;48.776;9.200;2023-12-20T08:23:56;2.20;;;1.25;;
9485;SDS011;4781;48.776;9.200;2023-12-20T08:26:26;2.70;;;1.15;;
9485;SDS011;4781;48.776;9.200;2023-12-20T08:28:54;1.80;;;1.20;;
9485;SDS011;4781;48.776;9.200;2023-12-20T08:31:23;3.15;;;1.45;;
9485;SDS011;4781;48.776;9.200;2023-12-20T08:33:52;1.80;;;1.30;;
9485;SDS011;4781;48.776;9.200;2023-12-20T08:36:20;2.20;;;1.15;;
9485;SDS011;4781;48.776;9.200;2023-12-20T08:38:49;2.30;;;1.32;;
9485;SDS011;4781;48.776;9.200;2023-12-20T08:41:18;4.08;;;1.65;;
9485;SDS011;4781;48.776;9.200;2023-12-20T08:43:46;1.95;;;1.10;;
9485;SDS011;4781;48.776;9.200;2023-12-20T08:46:15;2.50;;;1.40;;
9485;SDS011;4781;48.776;9.200;2023-12-20T08:48:43;1.90;;;1.30;;
9485;SDS011;4781;48.776;9.200;2023-12-20T08:51:12;2.75;;;1.40;;
9485;SDS011;4781;48.776;9.200;2023-12-20T08:53:41;1.95;;;1.22;;
9485;SDS011;4781;48.776;9.200;2023-12-20T08:56:11;5.87;;;1.15;;
9485;SDS011;4781;48.776;9.200;2023-12-20T08:58:39;2.65;;;1.40;;
9485;SDS011;4781;48.776;9.200;2023-12-20T09:01:07;2.12;;;1.10;;
9485;SDS011;4781;48.776;9.200;2023-12-20T09:03:36;2.22;;;1.40;;
9485;SDS011;4781;48.776;9.200;2023-12-20T09:06:04;2.52;;;1.17;;
9485;SDS011;4781;48.776;9.200;2023-12-20T09:08:33;2.37;;;1.40;;
9485;SDS011;4781;48.776;9.200;2023-12-20T09:11:01;1.87;;;1.20;;
9485;SDS011;4781;48.776;9.200;2023-12-20T09:13:30;2.33;;;1.30;;
9485;SDS011;4781;48.776;9.200;2023-12-20T09:15:58;2.47;;;1.50;;
9485;SDS011;4781;48.776;9.200;2023-12-20T09:18:27;2.33;;;1.40;;
9485;SDS011;4781;48.776;9.200;2023-12-20T09:20:55;3.52;;;1.65;;
9485;SDS011;4781;48.776;9.200;2023-12-20T09:23:23;2.62;;;1.55;;
9485;SDS011;4781;48.776;9.200;2023-12-20T09:25:52;2.52;;;1.67;;
9485;SDS011;4781;48.776;9.200;2023-12-20T09:28:20;2.98;;;1.57;;
9485;SDS011;4781;48.776;9.200;2023-12-20T09:30:49;2.08;;;1.17;;
9485;SDS011;4781;48.776;9.200;2023-12-20T09:33:17;2.67;;;1.45;;
9485;SDS011;4781;48.776;9.200;2023-12-20T09:35:46;2.22;;;1.30;;
9485;SDS011;4781;48.776;9.200;2023-12-20T09:38:14;1.80;;;1.10;;
9485;SDS011;4781;48.776;9.200;2023-12-20T09:40:43;2.52;;;1.00;;
9485;SDS011;4781;48.776;9.200;2023-12-20T09:43:13;4.72;;;1.27;;
9485;SDS011;4781;48.776;9.200;2023-12-20T09:45:42;2.22;;;1.10;;
9485;SDS011;4781;48.776;9.200;2023-12-20T09:48:14;2.37;;;1.00;;
9485;SDS011;4781;48.776;9.200;2023-12-20T09:50:45;1.50;;;0.85;;
9485;SDS011;4781;48.776;9.200;2023-12-20T09:53:14;1.82;;;1.02;;
9485;SDS011;4781;48.776;9.200;2023-12-20T09:55:43;1.37;;;0.98;;
9485;SDS011;4781;48.776;9.200;2023-12-20T09:58:11;1.27;;;0.75;;
9485;SDS011;4781;48.776;9.200;2023-12-20T10:00:40;1.92;;;1.02;;
9485;SDS011;4781;48.776;9.200;2023-12-20T10:03:09;1.52;;;0.93;;
9485;SDS011;4781;48.776;9.200;2023-12-20T10:05:39;2.83;;;0.95;;
9485;SDS011;4781;48.776;9.200;2023-12-20T10:08:09;2.12;;;1.10;;
9485;SDS011;4781;48.776;9.200;2023-12-20T10:10:37;1.62;;;1.10;;
9485;SDS011;4781;48.776;9.200;2023-12-20T10:13:07;2.25;;;0.98;;
9485;SDS011;4781;48.776;9.200;2023-12-20T10:15:37;2.85;;;0.90;;
9485;SDS011;4781;48.776;9.200;2023-12-20T10:18:06;1.90;;;0.82;;
9485;SDS011;4781;48.776;9.200;2023-12-20T10:20:35;2.17;;;1.00;;
9485;SDS011;4781;48.776;9.200;2023-12-20T10:23:03;1.70;;;1.20;;
9485;SDS011;4781;48.776;9.200;2023-12-20T10:25:32;2.27;;;1.02;;
9485;SDS011;4781;48.776;9.200;2023-12-20T10:28:10;3.47;;;1.05;;
9485;SDS011;4781;48.776;9.200;2023-12-20T10:30:46;1.57;;;0.80;;
9485;SDS011;4781;48.776;9.200;2023-12-20T10:33:24;4.67;;;0.98;;
9485;SDS011;4781;48.776;9.200;2023-12-20T10:35:55;4.17;;;1.05;;
9485;SDS011;4781;48.776;9.200;2023-12-20T10:38:24;1.55;;;1.12;;
9485;SDS011;4781;48.776;9.200;2023-12-20T10:40:54;2.42;;;1.22;;
9485;SDS011;4781;48.776;9.200;2023-12-20T10:43:25;1.57;;;1.02;;
9485;SDS011;4781;48.776;9.200;2023-12-20T10:45:56;3.08;;;1.17;;
9485;SDS011;4781;48.776;9.200;2023-12-20T10:48:25;3.35;;;1.45;;
9485;SDS011;4781;48.776;9.200;2023-12-20T10:50:56;3.35;;;0.93;;
9485;SDS011;4781;48.776;9.200;2023-12-20T10:53:25;2.70;;;1.12;;
9485;SDS011;4781;48.776;9.200;2023-12-20T10:55:55;1.52;;;0.98;;
9485;SDS011;4781;48.776;9.200;2023-12-20T10:58:25;3.02;;;0.98;;
9485;SDS011;4781;48.776;9.200;2023-12-20T11:00:58;1.10;;;0.80;;
9485;SDS011;4781;48.776;9.200;2023-12-20T11:03:28;4.15;;;1.00;;
9485;SDS011;4781;48.776;9.200;2023-12-20T11:06:03;2.35;;;1.02;;
9485;SDS011;4781;48.776;9.200;2023-12-20T11:08:58;1.60;;;1.00;;
9485;SDS011;4781;48.776;9.200;2023-12-20T11:11:32;5.03;;;1.05;;
9485;SDS011;4781;48.776;9.200;2023-12-20T11:14:19;1.27;;;0.80;;
9485;SDS011;4781;48.776;9.200;2023-12-20T11:16:50;1.70;;;0.93;;
9485;SDS011;4781;48.776;9.200;2023-12-20T11:22:29;2.95;;;0.93;;
9485;SDS011;4781;48.776;9.200;2023-12-20T11:25:10;3.17;;;0.93;;
9485;SDS011;4781;48.776;9.200;2023-12-20T11:27:41;2.27;;;0.95;;
9485;SDS011;4781;48.776;9.200;2023-12-20T11:30:11;1.67;;;0.90;;
9485;SDS011;4781;48.776;9.200;2023-12-20T11:32:41;1.37;;;1.00;;
9485;SDS011;4781;48.776;9.200;2023-12-20T11:37:42;1.57;;;0.95;;
9485;SDS011;4781;48.776;9.200;2023-12-20T11:40:16;3.70;;;1.05;;
9485;SDS011;4781;48.776;9.200;2023-12-20T11:42:52;2.27;;;1.07;;
9485;SDS011;4781;48.776;9.200;2023-12-20T11:45:20;1.27;;;0.75;;
9485;SDS011;4781;48.776;9.200;2023-12-20T11:47:51;1.70;;;0.85;;
9485;SDS011;4781;48.776;9.200;2023-12-20T11:50:20;2.10;;;1.57;;
9485;SDS011;4781;48.776;9.200;2023-12-20T11:52:50;3.52;;;1.00;;
9485;SDS011;4781;48.776;9.200;2023-12-20T11:55:21;3.30;;;1.50;;
9485;SDS011;4781;48.776;9.200;2023-12-20T11:57:50;2.98;;;1.10;;
9485;SDS011;4781;48.776;9.200;2023-12-20T12:00:19;2.63;;;1.20;;
9485;SDS011;4781;48.776;9.200;2023-12-20T12:03:00;3.08;;;1.55;;
9485;SDS011;4781;48.776;9.200;2023-12-20T12:05:30;1.45;;;0.93;;
9485;SDS011;4781;48.776;9.200;2023-12-20T12:07:59;3.08;;;1.12;;
9485;SDS011;4781;48.776;9.200;2023-12-20T12:10:27;1.52;;;0.78;;
9485;SDS011;4781;48.776;9.200;2023-12-20T12:12:57;1.65;;;0.98;;
9485;SDS011;4781;48.776;9.200;2023-12-20T12:15:26;2.27;;;1.10;;
9485;SDS011;4781;48.776;9.200;2023-12-20T12:17:55;2.77;;;1.10;;
9485;SDS011;4781;48.776;9.200;2023-12-20T12:20:25;3.42;;;1.27;;
9485;SDS011;4781;48.776;9.200;2023-12-20T12:23:03;2.22;;;1.00;;
9485;SDS011;4781;48.776;9.200;2023-12-20T12:25:34;3.37;;;1.10;;
9485;SDS011;4781;48.776;9.200;2023-12-20T12:28:03;1.95;;;0.70;;
9485;SDS011;4781;48.776;9.200;2023-12-20T12:30:32;1.22;;;0.80;;
9485;SDS011;4781;48.776;9.200;2023-12-20T12:33:00;2.12;;;1.07;;
9485;SDS011;4781;48.776;9.200;2023-12-20T12:35:29;5.05;;;0.88;;
9485;SDS011;4781;48.776;9.200;2023-12-20T12:37:58;4.12;;;0.98;;
9485;SDS011;4781;48.776;9.200;2023-12-20T12:40:28;1.90;;;1.02;;
9485;SDS011;4781;48.776;9.200;2023-12-20T12:42:57;3.17;;;0.95;;
9485;SDS011;4781;48.776;9.200;2023-12-20T12:45:25;2.52;;;1.40;;
9485;SDS011;4781;48.776;9.200;2023-12-20T12:47:54;2.65;;;1.00;;
9485;SDS011;4781;48.776;9.200;2023-12-20T12:50:22;1.90;;;1.00;;
9485;SDS011;4781;48.776;9.200;2023-12-20T12:52:50;2.42;;;1.00;;
9485;SDS011;4781;48.776;9.200;2023-12-20T12:55:19;2.12;;;0.88;;
9485;SDS011;4781;48.776;9.200;2023-12-20T12:57:47;1.92;;;1.12;;
9485;SDS011;4781;48.776;9.200;2023-12-20T13:00:16;1.57;;;0.90;;
9485;SDS011;4781;48.776;9.200;2023-12-20T13:02:45;2.50;;;1.07;;
9485;SDS011;4781;48.776;9.200;2023-12-20T13:05:13;1.15;;;0.85;;
9485;SDS011;4781;48.776;9.200;2023-12-20T13:07:43;4.45;;;0.93;;
9485;SDS011;4781;48.776;9.200;2023-12-20T13:10:12;3.50;;;0.85;;
9485;SDS011;4781;48.776;9.200;2023-12-20T13:12:42;1.05;;;0.80;;
9485;SDS011;4781;48.776;9.200;2023-12-20T13:15:11;2.58;;;0.98;;
9485;SDS011;4781;48.776;9.200;2023-12-20T13:17:39;1.60;;;0.90;;
9485;SDS011;4781;48.776;9.200;2023-12-20T13:20:08;3.20;;;1.10;;
9485;SDS011;4781;48.776;9.200;2023-12-20T13:22:36;1.75;;;1.10;;
9485;SDS011;4781;48.776;9.200;2023-12-20T13:25:05;1.37;;;1.00;;
9485;SDS011;4781;48.776;9.200;2023-12-20T13:27:33;2.22;;;1.27;;
9485;SDS011;4781;48.776;9.200;2023-12-20T13:30:02;3.45;;;1.15;;
9485;SDS011;4781;48.776;9.200;2023-12-20T13:32:31;1.20;;;0.93;;
9485;SDS011;4781;48.776;9.200;2023-12-20T13:35:00;3.92;;;0.90;;
9485;SDS011;4781;48.776;9.200;2023-12-20T13:37:30;1.87;;;0.80;;
9485;SDS011;4781;48.776;9.200;2023-12-20T13:39:58;1.45;;;0.70;;
9485;SDS011;4781;48.776;9.200;2023-12-20T13:42:28;4.92;;;0.95;;
9485;SDS011;4781;48.776;9.200;2023-12-20T13:44:56;1.87;;;0.93;;
9485;SDS011;4781;48.776;9.200;2023-12-20T13:47:24;3.00;;;0.90;;
9485;SDS011;4781;48.776;9.200;2023-12-20T13:49:53;1.75;;;0.72;;
9485;SDS011;4781;48.776;9.200;2023-12-20T13:52:21;1.17;;;0.72;;
9485;SDS011;4781;48.776;9.200;2023-12-20T13:54:50;2.80;;;0.90;;
9485;SDS011;4781;48.776;9.200;2023-12-20T13:57:18;1.60;;;0.80;;
9485;SDS011;4781;48.776;9.200;2023-12-20T13:59:47;1.85;;;0.90;;
9485;SDS011;4781;48.776;9.200;2023-12-20T14:02:15;1.35;;;0.78;;
9485;SDS011;4781;48.776;9.200;2023-12-20T14:04:44;1.00;;;0.72;;
9485;SDS011;4781;48.776;9.200;2023-12-20T14:07:12;1.50;;;0.75;;
9485;SDS011;4781;48.776;9.200;2023-12-20T14:09:41;1.40;;;0.80;;
9485;SDS011;4781;48.776;9.200;2023-12-20T14:12:13;1.65;;;1.15;;
9485;SDS011;4781;48.776;9.200;2023-12-20T14:14:42;2.08;;;0.90;;
9485;SDS011;4781;48.776;9.200;2023-12-20T14:17:10;3.42;;;0.98;;
9485;SDS011;4781;48.776;9.200;2023-12-20T14:19:39;1.62;;;0.90;;
9485;SDS011;4781;48.776;9.200;2023-12-20T14:22:07;2.20;;;1.05;;
9485;SDS011;4781;48.776;9.200;2023-12-20T14:24:35;1.65;;;0.80;;
9485;SDS011;4781;48.776;9.200;2023-12-20T14:27:04;3.58;;;0.98;;
9485;SDS011;4781;48.776;9.200;2023-12-20T14:29:32;1.50;;;0.90;;
9485;SDS011;4781;48.776;9.200;2023-12-20T14:32:01;3.52;;;1.10;;
9485;SDS011;4781;48.776;9.200;2023-12-20T14:34:29;1.05;;;0.85;;
9485;SDS011;4781;48.776;9.200;2023-12-20T14:36:58;1.52;;;0.93;;
9485;SDS011;4781;48.776;9.200;2023-12-20T14:39:26;2.80;;;0.93;;
9485;SDS011;4781;48.776;9.200;2023-12-20T14:41:54;1.85;;;0.90;;
9485;SDS011;4781;48.776;9.200;2023-12-20T14:44:23;1.50;;;0.70;;
9485;SDS011;4781;48.776;9.200;2023-12-20T14:46:51;2.62;;;1.42;;
9485;SDS011;4781;48.776;9.200;2023-12-20T14:49:20;2.25;;;0.90;;
9485;SDS011;4781;48.776;9.200;2023-12-20T14:51:48;2.08;;;0.88;;
9485;SDS011;4781;48.776;9.200;2023-12-20T14:54:16;4.10;;;1.32;;
9485;SDS011;4781;48.776;9.200;2023-12-20T14:56:47;4.12;;;1.05;;
9485;SDS011;4781;48.776;9.200;2023-12-20T14:59:15;2.17;;;0.93;;
9485;SDS011;4781;48.776;9.200;2023-12-20T15:01:43;1.57;;;0.83;;
9485;SDS011;4781;48.776;9.200;2023-12-20T15:04:12;2.75;;;0.90;;
9485;SDS011;4781;48.776;9.200;2023-12-20T15:06:41;2.08;;;0.93;;
9485;SDS011;4781;48.776;9.200;2023-12-20T15:09:10;3.98;;;1.07;;
9485;SDS011;4781;48.776;9.200;2023-12-20T15:11:39;1.55;;;1.00;;
9485;SDS011;4781;48.776;9.200;2023-12-20T15:14:07;3.37;;;1.07;;
9485;SDS011;4781;48.776;9.200;2023-12-20T15:16:36;0.70;;;0.62;;
9485;SDS011;4781;48.776;9.200;2023-12-20T15:19:05;1.27;;;0.82;;
9485;SDS011;4781;48.776;9.200;2023-12-20T15:21:33;4.62;;;1.50;;
9485;SDS011;4781;48.776;9.200;2023-12-20T15:24:03;1.57;;;0.90;;
9485;SDS011;4781;48.776;9.200;2023-12-20T15:26:34;3.72;;;1.00;;
9485;SDS011;4781;48.776;9.200;2023-12-20T15:29:05;1.62;;;0.95;;
9485;SDS011;4781;48.776;9.200;2023-12-20T15:31:36;2.08;;;0.80;;